メインページ
METAR-TAF:

METAR-TAF

空港 :

ジェネラル・エドワード・ローレンス・ローガン国際空港

ボストン, マサチューセッツ州, アメリカ合衆国

緯度: 42-21-38N, 経度: 071-00-38W, 海抜: 6m

現時点の気象観測

当レポートは45分前の08:54(UTC)に作成
南西の風 11kt
気温 17°C
湿度 94%
気圧 1014 hPa
視程: 16.1km
高度700ftの曇り

METAR: KBOS 200854Z COR 22011KT 10SM OVC007 17/16 A2993 RMK AO2 SLP133 60002 T01720161 56027

時間: 05:39 (09:39 UTC)

予報

当レポートは1時間6分前の08:33(UTC)に作成
予報は20日の 09時(UTC)から 21日の 12時(UTC)まで有効
南/南西の風 7kt
視程: 10km
高度700ftの曇り
20日の 1300時(UTC)から
南西の風 11kt、最大24ktの突風を伴う
視程: 10km
高度1500ftの曇り
20日の 1700時(UTC)から
西/南西の風 10kt、最大21ktの突風を伴う
視程: 10km
高度2500ftの曇り
20日の 1900時(UTC)から
西の風 9kt
視程: 10km
高度3000ftの千切れ雲あり
弱いにわか雨
20日の 2000時(UTC)から
西の風 7kt
視程: 10km
高度3500ftの千切れ雲あり
近辺でにわか雨
20日の 2100時(UTC)から
西/北西の風 8kt
視程: 10km
高度3500ftの千切れ雲あり
20日の 2300時(UTC)から
北西の風 6kt
視程: 10km
高度15000ftの雲は散在している

TAF: KBOS 200833Z 2009/2112 20007KT P6SM OVC007 FM201300 23011G24KT P6SM OVC015 FM201700 24010G21KT P6SM OVC025 FM201900 26009KT P6SM -SHRA BKN030 FM202000 27007KT P6SM VCSH BKN035 FM202100 29008KT P6SM BKN035 FM202300 31006KT P6SM SCT150

4,000以上の空港の気象観測と天気予報(METAR報とTAF報)

利用可能な観測所は地図上に黄色い丸と赤い丸で示す。

丸の上にカーソルを重ねると観測所名を参照できる。

次にクリックすると気象観測と天気予報を参照できる。

マップの切り替え:黒色「×」印の緑ボタンをクリックして拡大、「-」印の緑ボタンをクリックして縮小、緑色の三角印をクリックして隣りの地図に切り替え


METAR-TAF: